createdAt,value
2023-01-17T00:02:08.002Z,100621.80
2023-01-17T00:04:53.788Z,100620.41
2023-01-17T00:07:40.309Z,100614.81
2023-01-17T00:10:09.946Z,100608.75
2023-01-17T00:12:37.283Z,100612.48
2023-01-17T00:15:04.838Z,100605.60
2023-01-17T00:17:32.074Z,100598.89
2023-01-17T00:20:20.007Z,100602.44
2023-01-17T00:23:06.111Z,100601.52
2023-01-17T00:25:53.348Z,100602.14
2023-01-17T00:28:20.395Z,100593.70
2023-01-17T00:30:47.451Z,100588.81
2023-01-17T00:33:14.558Z,100584.97
2023-01-17T00:35:41.707Z,100577.84
2023-01-17T00:38:09.577Z,100566.32
2023-01-17T00:40:38.889Z,100563.75
2023-01-17T00:43:25.178Z,100559.19
2023-01-17T00:46:11.146Z,100558.67
2023-01-17T00:48:57.883Z,100561.79
2023-01-17T00:51:43.906Z,100562.45
2023-01-17T00:54:29.893Z,100562.90
2023-01-17T00:57:15.543Z,100562.42
2023-01-17T01:00:01.430Z,100565.94
2023-01-17T01:02:47.260Z,100571.21
2023-01-17T01:05:33.145Z,100573.09
2023-01-17T01:08:19.492Z,100567.94
2023-01-17T01:11:06.020Z,100567.43
2023-01-17T01:13:51.760Z,100569.43
2023-01-17T01:16:38.095Z,100567.10
2023-01-17T01:19:24.310Z,100563.80
2023-01-17T01:22:10.098Z,100562.31
2023-01-17T01:24:55.800Z,100560.73
2023-01-17T01:27:42.081Z,100565.80
2023-01-17T01:30:28.163Z,100568.57
2023-01-17T01:33:13.948Z,100566.41
2023-01-17T01:35:42.230Z,100562.70
2023-01-17T01:38:09.276Z,100564.59
2023-01-17T01:40:42.423Z,100564.02
2023-01-17T01:43:09.615Z,100565.61
2023-01-17T01:45:36.810Z,100568.14
2023-01-17T01:48:13.232Z,100576.50
2023-01-17T01:50:40.486Z,100582.10
2023-01-17T01:53:07.539Z,100584.75
2023-01-17T01:55:41.100Z,100580.42
2023-01-17T01:58:13.739Z,100574.52
2023-01-17T02:00:41.230Z,100570.48
2023-01-17T02:03:14.545Z,100573.67
2023-01-17T02:05:42.945Z,100571.95
2023-01-17T02:08:15.593Z,100574.63
2023-01-17T02:10:44.216Z,100564.27
2023-01-17T02:13:12.807Z,100564.40
2023-01-17T02:15:58.205Z,100567.00
2023-01-17T02:18:47.717Z,100564.02
2023-01-17T02:21:17.833Z,100563.42
2023-01-17T02:24:03.858Z,100563.27
2023-01-17T02:26:42.675Z,100562.02
2023-01-17T02:29:34.735Z,100563.61
2023-01-17T02:32:31.005Z,100561.02
2023-01-17T02:35:01.296Z,100558.42
2023-01-17T02:37:56.608Z,100554.88
2023-01-17T02:40:27.351Z,100555.54
2023-01-17T02:43:00.888Z,100552.71
2023-01-17T02:45:28.187Z,100549.04
2023-01-17T02:47:55.323Z,100549.89
2023-01-17T02:50:24.413Z,100547.45
2023-01-17T02:53:13.590Z,100545.20
2023-01-17T02:55:47.955Z,100548.59
2023-01-17T02:58:18.037Z,100545.27
2023-01-17T03:00:59.864Z,100541.96
2023-01-17T03:03:33.496Z,100541.79
2023-01-17T03:06:13.665Z,100543.63
2023-01-17T03:08:43.084Z,100542.96
2023-01-17T03:11:10.751Z,100543.27
2023-01-17T03:13:37.892Z,100542.07
2023-01-17T03:16:07.143Z,100540.38
2023-01-17T03:26:37.202Z,100538.94
2023-01-17T03:29:04.220Z,100538.08
2023-01-17T03:31:31.458Z,100538.89
2023-01-17T03:33:58.609Z,100539.23
2023-01-17T03:36:25.757Z,100536.70
2023-01-17T03:38:52.845Z,100530.81
2023-01-17T03:41:19.919Z,100533.79
2023-01-17T03:43:47.053Z,100536.04
2023-01-17T03:46:22.711Z,100535.70
2023-01-17T03:48:50.429Z,100536.84
2023-01-17T03:51:17.975Z,100537.03
2023-01-17T03:53:47.099Z,100536.14
2023-01-17T03:56:14.755Z,100526.97
2023-01-17T03:58:42.256Z,100526.14
2023-01-17T04:01:09.602Z,100525.87
2023-01-17T04:03:36.902Z,100526.89
2023-01-17T04:06:04.259Z,100529.05
2023-01-17T04:08:31.729Z,100530.17
2023-01-17T04:10:58.962Z,100535.89
2023-01-17T04:13:26.333Z,100542.07
2023-01-17T04:15:53.489Z,100544.81
2023-01-17T04:18:36.195Z,100547.11
2023-01-17T04:21:03.280Z,100552.33
2023-01-17T04:23:30.383Z,100552.73
2023-01-17T04:25:57.453Z,100560.63
2023-01-17T04:28:24.586Z,100553.77
2023-01-17T04:30:51.655Z,100555.67
2023-01-17T04:33:18.892Z,100553.95
2023-01-17T04:35:46.034Z,100557.29
2023-01-17T04:38:13.077Z,100560.34
2023-01-17T04:40:40.126Z,100557.58
2023-01-17T04:43:07.157Z,100562.13
2023-01-17T04:45:34.541Z,100565.69
2023-01-17T04:48:05.783Z,100573.90
2023-01-17T04:50:33.133Z,100572.48
2023-01-17T04:53:00.756Z,100575.95
2023-01-17T04:55:28.095Z,100580.91
2023-01-17T04:57:55.203Z,100585.84
2023-01-17T05:00:24.132Z,100584.23
2023-01-17T05:02:52.449Z,100577.98
2023-01-17T05:05:19.810Z,100580.73
2023-01-17T05:07:56.266Z,100583.40
2023-01-17T05:10:23.653Z,100584.05
2023-01-17T05:12:57.488Z,100581.68
2023-01-17T05:15:24.917Z,100582.33
2023-01-17T05:17:52.797Z,100573.84
2023-01-17T05:20:21.173Z,100567.21
2023-01-17T05:22:57.676Z,100565.85
2023-01-17T05:25:26.114Z,100571.16
2023-01-17T05:27:53.192Z,100573.96
2023-01-17T05:30:20.764Z,100571.44
2023-01-17T05:32:52.279Z,100575.60
2023-01-17T05:35:22.579Z,100583.69
2023-01-17T05:37:50.671Z,100585.60
2023-01-17T05:40:22.547Z,100584.27
2023-01-17T05:42:51.108Z,100580.19
2023-01-17T05:45:20.003Z,100590.17
2023-01-17T05:47:48.372Z,100590.74
2023-01-17T05:50:17.508Z,100587.05
2023-01-17T05:52:55.408Z,100589.04
2023-01-17T05:55:22.756Z,100589.56
2023-01-17T05:57:50.525Z,100593.14
2023-01-17T06:00:18.277Z,100587.18
2023-01-17T06:02:46.222Z,100585.15
2023-01-17T06:05:13.990Z,100581.02
2023-01-17T06:07:44.171Z,100582.30
2023-01-17T06:10:12.009Z,100580.69
2023-01-17T06:12:39.056Z,100575.64
2023-01-17T06:15:06.826Z,100578.36
2023-01-17T06:17:33.970Z,100574.16
2023-01-17T06:20:01.089Z,100574.11
2023-01-17T06:22:28.263Z,100567.44
2023-01-17T06:24:55.458Z,100568.89
2023-01-17T06:27:22.573Z,100568.10
2023-01-17T06:29:49.719Z,100570.91
2023-01-17T06:32:16.869Z,100575.41
2023-01-17T06:34:44.019Z,100576.23
2023-01-17T06:37:11.077Z,100575.90
2023-01-17T06:39:38.185Z,100583.60
2023-01-17T06:42:05.340Z,100579.36
2023-01-17T06:44:32.485Z,100584.10
2023-01-17T06:46:59.761Z,100572.20
2023-01-17T06:49:26.859Z,100570.98
2023-01-17T06:51:53.972Z,100571.27
2023-01-17T06:54:21.117Z,100572.70
2023-01-17T06:56:48.165Z,100572.96
2023-01-17T06:59:15.487Z,100575.16
2023-01-17T07:01:42.680Z,100578.20
2023-01-17T07:04:10.094Z,100574.42
2023-01-17T07:06:37.470Z,100563.68
2023-01-17T07:09:04.768Z,100563.56
2023-01-17T07:11:31.994Z,100568.40
2023-01-17T07:13:59.214Z,100570.24
2023-01-17T07:16:26.409Z,100568.12
2023-01-17T07:18:54.939Z,100572.69
2023-01-17T07:21:22.780Z,100568.10
2023-01-17T07:23:50.075Z,100566.80
2023-01-17T07:26:17.516Z,100574.34
2023-01-17T07:28:44.778Z,100572.75
2023-01-17T07:31:12.078Z,100574.55
2023-01-17T07:33:39.380Z,100572.88
2023-01-17T07:36:07.616Z,100576.84
2023-01-17T07:38:35.010Z,100569.99
2023-01-17T07:41:02.357Z,100565.73
2023-01-17T07:43:29.477Z,100569.09
2023-01-17T07:45:56.535Z,100565.52
2023-01-17T07:48:24.235Z,100566.06
2023-01-17T07:50:55.902Z,100564.96
2023-01-17T07:53:24.584Z,100556.54
2023-01-17T07:55:51.944Z,100553.42
2023-01-17T07:58:19.501Z,100558.83
2023-01-17T08:00:46.867Z,100560.67
2023-01-17T08:03:15.443Z,100560.40
2023-01-17T08:05:43.556Z,100562.23
2023-01-17T08:08:10.679Z,100565.83
2023-01-17T08:10:37.795Z,100563.19
2023-01-17T08:13:05.044Z,100570.14
2023-01-17T08:15:32.467Z,100559.58
2023-01-17T08:18:00.513Z,100551.65
2023-01-17T08:20:28.204Z,100549.61
2023-01-17T08:22:56.216Z,100550.38
2023-01-17T08:25:24.384Z,100544.55
2023-01-17T08:27:52.092Z,100542.82
2023-01-17T08:30:19.291Z,100535.92
2023-01-17T08:32:46.453Z,100533.77
2023-01-17T08:35:14.409Z,100536.20
2023-01-17T08:37:41.932Z,100538.66
2023-01-17T08:40:11.230Z,100540.29
2023-01-17T08:42:40.531Z,100535.52
2023-01-17T08:45:08.971Z,100530.05
2023-01-17T08:47:36.160Z,100521.50
2023-01-17T08:50:07.016Z,100516.05
2023-01-17T08:52:34.399Z,100510.08
2023-01-17T08:55:01.561Z,100501.55
2023-01-17T08:57:28.699Z,100488.25
2023-01-17T08:59:55.827Z,100482.70
2023-01-17T09:02:24.604Z,100484.63
2023-01-17T09:04:51.972Z,100472.66
2023-01-17T09:07:20.023Z,100467.12
2023-01-17T09:09:47.318Z,100468.67
2023-01-17T09:12:14.461Z,100468.98
2023-01-17T09:14:41.612Z,100471.65
2023-01-17T09:17:08.703Z,100464.79
2023-01-17T09:19:35.915Z,100462.86
2023-01-17T09:22:05.304Z,100450.30
2023-01-17T09:24:33.538Z,100441.41
2023-01-17T09:27:00.893Z,100445.09
2023-01-17T09:29:28.239Z,100436.94
2023-01-17T09:31:55.288Z,100433.27
2023-01-17T09:34:24.401Z,100429.61
2023-01-17T09:36:51.601Z,100424.48
2023-01-17T09:39:18.985Z,100420.52
2023-01-17T09:41:46.213Z,100404.77
2023-01-17T09:44:24.635Z,100399.09
2023-01-17T09:46:53.528Z,100396.95
2023-01-17T09:49:29.732Z,100395.38
2023-01-17T09:51:56.795Z,100398.87
2023-01-17T09:54:25.504Z,100393.04
2023-01-17T09:57:13.855Z,100391.03
2023-01-17T10:00:16.334Z,100382.50
2023-01-17T10:02:46.577Z,100369.34
2023-01-17T10:05:27.269Z,100366.32
2023-01-17T10:08:04.697Z,100366.98
2023-01-17T10:10:34.948Z,100372.90
2023-01-17T10:13:17.316Z,100371.27
2023-01-17T10:16:25.584Z,100369.13
2023-01-17T10:18:56.513Z,100373.69
2023-01-17T10:21:39.005Z,100374.96
2023-01-17T10:24:21.435Z,100379.91
2023-01-17T10:26:53.411Z,100380.54
2023-01-17T10:29:21.702Z,100385.68
2023-01-17T10:31:54.602Z,100381.72
2023-01-17T10:34:23.579Z,100377.62
2023-01-17T10:36:53.317Z,100377.25
2023-01-17T10:39:22.874Z,100374.61
2023-01-17T10:42:00.971Z,100383.33
2023-01-17T10:44:44.113Z,100379.42
2023-01-17T10:47:11.591Z,100378.86
2023-01-17T10:49:40.258Z,100373.20
2023-01-17T10:52:43.836Z,100376.58
2023-01-17T10:55:29.937Z,100383.23
2023-01-17T10:57:58.300Z,100381.00
2023-01-17T11:00:32.596Z,100386.92
2023-01-17T11:03:00.051Z,100384.36
2023-01-17T11:05:28.930Z,100380.51
2023-01-17T11:08:04.133Z,100371.89
2023-01-17T11:10:44.660Z,100368.48
2023-01-17T11:13:32.104Z,100368.43
2023-01-17T11:16:10.329Z,100364.13
2023-01-17T11:18:41.044Z,100356.59
2023-01-17T11:21:12.878Z,100360.59
2023-01-17T11:23:42.827Z,100362.02
2023-01-17T11:26:12.547Z,100363.95
2023-01-17T11:28:40.627Z,100366.66
2023-01-17T11:31:16.746Z,100358.38
2023-01-17T11:33:45.482Z,100358.05
2023-01-17T11:36:27.517Z,100354.23
2023-01-17T11:38:55.517Z,100357.36
2023-01-17T11:41:23.801Z,100363.11
2023-01-17T11:43:55.266Z,100363.33
2023-01-17T11:46:22.807Z,100361.83
2023-01-17T11:48:56.170Z,100352.52
2023-01-17T11:51:31.870Z,100353.56
2023-01-17T11:54:27.977Z,100349.48
2023-01-17T11:56:59.094Z,100349.30
2023-01-17T11:59:33.586Z,100342.93
2023-01-17T12:02:32.084Z,100336.02
2023-01-17T12:05:28.300Z,100336.64
2023-01-17T12:07:59.619Z,100331.65
2023-01-17T12:10:31.881Z,100329.40
2023-01-17T12:13:23.840Z,100326.52
2023-01-17T12:16:45.706Z,100331.69
2023-01-17T12:19:39.109Z,100336.59
2023-01-17T12:22:06.151Z,100334.04
2023-01-17T12:25:04.540Z,100332.09
2023-01-17T12:27:46.857Z,100328.45
2023-01-17T12:30:38.670Z,100325.52
2023-01-17T12:33:24.761Z,100329.60
2023-01-17T12:35:54.269Z,100330.30
2023-01-17T12:38:32.832Z,100335.39
2023-01-17T12:41:03.416Z,100337.04
2023-01-17T12:43:37.295Z,100328.11
2023-01-17T12:46:40.900Z,100321.64
2023-01-17T12:49:58.435Z,100325.85
2023-01-17T12:53:02.712Z,100321.27
2023-01-17T12:56:04.467Z,100320.06
2023-01-17T12:58:37.201Z,100322.83
2023-01-17T13:01:29.924Z,100325.91
2023-01-17T13:04:00.919Z,100326.64
2023-01-17T13:06:32.628Z,100332.73
2023-01-17T13:09:00.913Z,100334.17
2023-01-17T13:11:33.640Z,100336.80
2023-01-17T13:14:01.506Z,100339.91
2023-01-17T13:16:51.174Z,100337.24
2023-01-17T13:19:34.935Z,100344.11
2023-01-17T13:22:03.580Z,100344.36
2023-01-17T13:25:13.147Z,100345.53
2023-01-17T13:28:03.435Z,100352.13
2023-01-17T13:30:56.788Z,100350.55
2023-01-17T13:33:36.369Z,100348.31
2023-01-17T13:36:13.007Z,100350.72
2023-01-17T13:38:43.033Z,100354.80
2023-01-17T13:41:34.492Z,100350.48
2023-01-17T13:44:20.240Z,100347.70
2023-01-17T13:47:00.979Z,100348.89
2023-01-17T13:49:37.270Z,100353.07
2023-01-17T13:52:11.107Z,100352.45
2023-01-17T13:54:45.341Z,100356.88
2023-01-17T13:57:36.327Z,100354.38
2023-01-17T14:00:16.449Z,100350.73
2023-01-17T14:02:43.688Z,100349.34
2023-01-17T14:05:21.509Z,100353.13
2023-01-17T14:07:59.475Z,100350.95
2023-01-17T14:10:43.151Z,100352.60
2023-01-17T14:13:35.728Z,100353.96
2023-01-17T14:16:24.438Z,100357.31
2023-01-17T14:18:51.580Z,100362.66
2023-01-17T14:21:23.539Z,100365.59
2023-01-17T14:24:10.888Z,100364.83
2023-01-17T14:26:45.413Z,100356.09
2023-01-17T14:29:51.156Z,100356.89
2023-01-17T14:32:20.460Z,100361.23
2023-01-17T14:34:49.401Z,100369.14
2023-01-17T14:37:33.406Z,100372.56
2023-01-17T14:40:01.042Z,100366.31
2023-01-17T14:42:29.763Z,100358.38
2023-01-17T14:45:18.694Z,100360.60
2023-01-17T14:47:46.207Z,100365.67
2023-01-17T14:50:24.101Z,100368.08
2023-01-17T14:53:13.676Z,100372.54
2023-01-17T14:56:01.113Z,100368.71
2023-01-17T14:58:33.311Z,100354.22
2023-01-17T15:01:01.581Z,100350.03
2023-01-17T15:03:30.549Z,100351.52
2023-01-17T15:05:58.031Z,100359.00
2023-01-17T15:08:29.617Z,100367.21
2023-01-17T15:10:58.670Z,100366.08
2023-01-17T15:13:44.248Z,100364.84
2023-01-17T15:16:29.675Z,100360.65
2023-01-17T15:18:57.577Z,100364.38
2023-01-17T15:21:33.017Z,100365.17
2023-01-17T15:24:07.286Z,100363.96
2023-01-17T15:26:35.587Z,100357.05
2023-01-17T15:29:18.809Z,100356.41
2023-01-17T15:31:58.343Z,100355.51
2023-01-17T15:34:32.849Z,100352.92
2023-01-17T15:37:02.897Z,100346.86
2023-01-17T15:39:37.855Z,100349.42
2023-01-17T15:42:06.828Z,100343.13
2023-01-17T15:44:48.493Z,100344.75
2023-01-17T15:47:28.670Z,100348.91
2023-01-17T15:49:55.791Z,100346.00
2023-01-17T15:52:22.903Z,100347.67
2023-01-17T15:54:53.421Z,100346.89
2023-01-17T15:57:24.679Z,100349.31
2023-01-17T15:59:55.960Z,100354.94
2023-01-17T16:02:43.388Z,100352.83
2023-01-17T16:05:30.947Z,100344.31
2023-01-17T16:08:23.271Z,100350.88
2023-01-17T16:10:53.312Z,100353.80
2023-01-17T16:13:20.924Z,100346.70
2023-01-17T16:15:48.376Z,100347.72
2023-01-17T16:18:16.429Z,100347.48
2023-01-17T16:20:48.581Z,100347.84
2023-01-17T16:23:16.742Z,100348.75
2023-01-17T16:25:44.701Z,100351.23
2023-01-17T16:28:11.964Z,100349.69
2023-01-17T16:30:39.221Z,100344.67
2023-01-17T16:33:06.361Z,100340.14
2023-01-17T16:35:34.147Z,100338.36
2023-01-17T16:38:05.836Z,100341.86
2023-01-17T16:40:34.560Z,100342.70
2023-01-17T16:43:01.771Z,100343.70
2023-01-17T16:45:30.160Z,100344.48
2023-01-17T16:47:57.357Z,100340.15
2023-01-17T16:50:24.993Z,100337.52
2023-01-17T16:52:52.682Z,100339.75
2023-01-17T16:55:22.448Z,100342.56
2023-01-17T16:57:50.426Z,100342.21
2023-01-17T17:00:18.319Z,100341.92
2023-01-17T17:02:45.709Z,100336.62
2023-01-17T17:05:13.588Z,100332.19
2023-01-17T17:07:43.196Z,100329.09
2023-01-17T17:10:10.970Z,100322.90
2023-01-17T17:12:38.194Z,100321.86
2023-01-17T17:15:05.761Z,100322.85
2023-01-17T17:17:37.239Z,100328.08
2023-01-17T17:20:05.016Z,100338.12
2023-01-17T17:22:33.286Z,100347.56
2023-01-17T17:25:00.418Z,100342.81
2023-01-17T17:27:27.994Z,100342.23
2023-01-17T17:29:55.180Z,100343.09
2023-01-17T17:32:22.416Z,100349.16
2023-01-17T17:34:51.219Z,100348.33
2023-01-17T17:37:18.375Z,100344.05
2023-01-17T17:39:45.584Z,100338.96
2023-01-17T17:42:12.887Z,100339.84
2023-01-17T17:44:40.031Z,100335.90
2023-01-17T17:47:07.379Z,100332.85
2023-01-17T17:49:34.481Z,100335.55
2023-01-17T17:52:05.742Z,100337.91
2023-01-17T17:54:33.081Z,100339.69
2023-01-17T17:57:00.148Z,100337.23
2023-01-17T17:59:27.431Z,100337.88
2023-01-17T18:01:54.554Z,100335.52
2023-01-17T18:04:22.255Z,100332.35
2023-01-17T18:06:49.427Z,100330.73
2023-01-17T18:09:16.718Z,100334.98
2023-01-17T18:11:44.015Z,100329.95
2023-01-17T18:14:13.164Z,100333.55
2023-01-17T18:16:42.117Z,100332.55
2023-01-17T18:19:16.331Z,100331.05
2023-01-17T18:21:43.880Z,100324.56
2023-01-17T18:24:12.687Z,100317.83
2023-01-17T18:26:44.412Z,100317.77
2023-01-17T18:29:14.855Z,100319.57
2023-01-17T18:31:43.161Z,100316.90
2023-01-17T18:34:14.876Z,100317.15
2023-01-17T18:36:42.667Z,100312.98
2023-01-17T18:39:14.772Z,100315.06
2023-01-17T18:41:42.081Z,100312.30
2023-01-17T18:44:09.497Z,100315.35
2023-01-17T18:46:36.895Z,100320.41
2023-01-17T18:49:04.794Z,100320.56
2023-01-17T18:51:33.795Z,100320.23
2023-01-17T18:54:05.337Z,100316.85
2023-01-17T18:56:36.673Z,100319.79
2023-01-17T18:59:05.843Z,100321.00
2023-01-17T19:01:35.875Z,100321.30
2023-01-17T19:04:04.487Z,100319.38
2023-01-17T19:06:33.491Z,100320.52
2023-01-17T19:09:00.602Z,100322.18
2023-01-17T19:11:28.386Z,100321.03
2023-01-17T19:13:55.924Z,100321.09
2023-01-17T19:16:31.025Z,100321.72
2023-01-17T19:19:02.077Z,100321.08
2023-01-17T19:21:29.545Z,100320.11
2023-01-17T19:23:57.096Z,100313.63
2023-01-17T19:26:26.545Z,100316.89
2023-01-17T19:28:54.917Z,100317.38
2023-01-17T19:31:28.914Z,100318.51
2023-01-17T19:33:57.624Z,100315.88
2023-01-17T19:36:29.549Z,100314.94
2023-01-17T19:39:04.461Z,100309.06
2023-01-17T19:41:33.369Z,100307.96
2023-01-17T19:44:02.182Z,100307.16
2023-01-17T19:46:29.430Z,100315.20
2023-01-17T19:48:56.861Z,100318.11
2023-01-17T19:51:24.616Z,100318.55
2023-01-17T19:53:51.774Z,100321.59
2023-01-17T19:56:20.666Z,100320.33
2023-01-17T19:58:47.932Z,100319.85
2023-01-17T20:01:20.670Z,100314.40
2023-01-17T20:03:49.012Z,100313.72
2023-01-17T20:06:20.551Z,100314.05
2023-01-17T20:08:47.481Z,100319.48
2023-01-17T20:11:19.614Z,100315.73
2023-01-17T20:13:47.764Z,100317.30
2023-01-17T20:16:15.804Z,100319.11
2023-01-17T20:18:43.199Z,100323.19
2023-01-17T20:21:15.716Z,100320.54
2023-01-17T20:23:43.388Z,100319.66
2023-01-17T20:26:11.086Z,100320.23
2023-01-17T20:28:38.932Z,100319.34
2023-01-17T20:31:12.959Z,100325.67
2023-01-17T20:33:44.193Z,100321.85
2023-01-17T20:36:12.869Z,100323.55
2023-01-17T20:38:46.059Z,100321.05
2023-01-17T20:41:21.014Z,100321.83
2023-01-17T20:43:53.156Z,100324.82
2023-01-17T20:46:21.727Z,100328.23
2023-01-17T20:48:56.403Z,100329.27
2023-01-17T20:51:25.124Z,100335.60
2023-01-17T20:53:54.251Z,100346.45
2023-01-17T20:56:22.003Z,100345.05
2023-01-17T20:58:51.535Z,100346.79
2023-01-17T21:01:19.867Z,100339.40
2023-01-17T21:03:48.460Z,100342.75
2023-01-17T21:06:16.447Z,100350.36
2023-01-17T21:08:44.766Z,100358.48
2023-01-17T21:11:13.874Z,100366.03
2023-01-17T21:13:41.396Z,100375.33
2023-01-17T21:16:09.868Z,100381.86
2023-01-17T21:18:38.676Z,100380.05
2023-01-17T21:21:14.523Z,100380.40
2023-01-17T21:23:42.576Z,100376.05
2023-01-17T21:26:12.246Z,100368.65
2023-01-17T21:28:40.767Z,100365.96
2023-01-17T21:31:23.189Z,100364.23
2023-01-17T21:34:03.747Z,100366.54
2023-01-17T21:36:33.267Z,100367.46
2023-01-17T21:39:04.322Z,100373.55
2023-01-17T21:41:33.754Z,100378.83
2023-01-17T21:44:08.718Z,100378.96
2023-01-17T21:46:38.353Z,100375.52
2023-01-17T21:49:06.089Z,100378.98
2023-01-17T21:51:52.848Z,100372.41
2023-01-17T21:54:40.843Z,100374.89
2023-01-17T21:57:27.594Z,100376.23
2023-01-17T21:59:54.800Z,100374.15
2023-01-17T22:02:21.944Z,100375.95
2023-01-17T22:04:49.308Z,100381.28
2023-01-17T22:07:16.807Z,100390.02
2023-01-17T22:09:43.915Z,100396.02
2023-01-17T22:12:10.967Z,100403.66
2023-01-17T22:14:38.931Z,100397.52
2023-01-17T22:17:06.095Z,100392.55
2023-01-17T22:19:34.011Z,100384.90
2023-01-17T22:22:01.452Z,100386.14
2023-01-17T22:24:28.506Z,100382.66
2023-01-17T22:26:55.659Z,100378.91
2023-01-17T22:29:23.112Z,100387.34
2023-01-17T22:31:50.372Z,100389.39
2023-01-17T22:34:19.134Z,100391.40
2023-01-17T22:36:46.353Z,100391.50
2023-01-17T22:39:13.570Z,100392.52
2023-01-17T22:41:40.655Z,100393.08
2023-01-17T22:44:08.671Z,100404.23
2023-01-17T22:46:41.485Z,100408.55
2023-01-17T22:49:13.372Z,100408.87
2023-01-17T22:51:40.425Z,100409.61
2023-01-17T22:54:07.577Z,100412.11
2023-01-17T22:56:35.139Z,100416.80
2023-01-17T22:59:02.598Z,100423.02
2023-01-17T23:01:31.182Z,100426.80
2023-01-17T23:03:59.878Z,100420.68
2023-01-17T23:06:31.696Z,100414.77
2023-01-17T23:09:00.402Z,100412.08
2023-01-17T23:11:41.770Z,100414.92
2023-01-17T23:14:22.904Z,100410.09
2023-01-17T23:17:10.911Z,100417.79
2023-01-17T23:19:41.395Z,100417.85
2023-01-17T23:22:16.472Z,100418.91
2023-01-17T23:24:53.635Z,100423.10
2023-01-17T23:27:50.085Z,100427.40
2023-01-17T23:30:18.882Z,100428.11
2023-01-17T23:33:06.629Z,100423.23
2023-01-17T23:35:38.011Z,100427.75
2023-01-17T23:38:28.453Z,100428.10
2023-01-17T23:41:25.031Z,100425.20
2023-01-17T23:43:53.677Z,100423.82
2023-01-17T23:46:20.988Z,100422.70
2023-01-17T23:48:48.189Z,100417.69
2023-01-17T23:51:15.349Z,100414.46
2023-01-17T23:53:42.690Z,100418.81
2023-01-17T23:56:15.383Z,100425.14
2023-01-17T23:58:42.518Z,100423.21
